Diwopu, Xinjiang Uygur

9:18 AM CST on July 23, 2014 (GMT +0800)
Diwopu (ZWWW) Elev 2146 ft | 43.91 °N, 87.47 °E | Change Station

Current weather conditions updated 18 minutes ago

Clear
Clear
86 °F
Feels Like 86 °F
N
4
Wind Variable Wind from South

Today is forecast to be Warmer than yesterday.

Today
High -- | Low -- °F
--% Chance of Precip.
Yesterday
High -- | Low -- °F
Precip. -- in
6:48 AM 9:43 PM
Waning Crescent, 14% visible
Pressure 29.71 in
Visibility -9999.0 miles
Clouds
Dew Point 45 °F
Humidity 23%
Rainfall 0.00 in
Snow Depth Not available.
UV Not available.
Pollen Not available.
Air Quality Not available.
Flu Activity Not available.
METAR ZWWW 230100Z 18002MPS CAVOK 30/07 Q1006 NOSIG

More Conditions Fewer Conditions

Pressure 29.71 in
Visibility -9999.0 miles
Clouds
Dew Point 45 °F
Humidity 23%
Rainfall 0.00 in
Snow Depth Not available.
UV Not available.
Pollen Not available.
Air Quality Not available.
Flu Activity Not available.
METAR ZWWW 230100Z 18002MPS CAVOK 30/07 Q1006 NOSIG

More Conditions Fewer Conditions

10-Day Weather Forecast

Almanac

Astronomy

Jul. 23, 2014 Rise Set
Actual Time 6:48 AM CST 9:43 PM CST
Civil Twilight 6:14 AM CST 10:17 PM CST
Nautical Twilight 5:31 AM CST 11:00 PM CST
Astronomical Twilight 4:40 AM CST 11:51 PM CST
Moon 3:45 AM CST 6:47 PM CST
Length of Visible Light 16h 03m
Length of Day
14h 55m
Tomorrow will be 1m 58s shorter.
Waning Crescent, 14% of the Moon is Illuminated
Jul 22
Waning Crescent
Jul 26
New
Aug 3
First Quarter
Aug 10
Full
Aug 17
Last Quarter

Yesterday's Extremes

Country Highs Country Lows

Community

WunderPhotos

Upload Photos

1,736,423 photos uploaded!

Nearby

Snow Depth

Not available.

Earthquake Activity

City Distance Mag. Time & Date
No recent earthquake activity has been reported nearby.
Minimum magnitude displayed is 2.5.

Coastal Water Temperatures

Place Temperature
No Stations Reporting

Nearby Weather Stations

There are no personal weather stations in this area.